Terminal Aerodrome Forecast
Issued by NWS Spokane, WA

Home | Current Version | Previous Version | Text Only | Print | Product List | Glossary On
Versions: 1 2 3 4 5 6 7 8 9 10 11 12 13 14 15 16 17 18 19 20 21 22 23 24 25 26
000
FTUS46 KOTX 231124
TAFEAT
TAF
KEAT 231124Z 2312/2412 26005KT P6SM BKN100 BKN150
     FM231900 13003KT P6SM VCSH SCT050 BKN090 OVC150
     FM240100 VRB03KT P6SM SCT100 OVC150
     FM240800 12003KT P6SM VCSH BKN100 OVC150=

USA.gov is the U.S. government's official web portal to all federal, state and local government web resources and services.